createdAt,value
2022-08-26T00:02:33.087Z,22.00
2022-08-26T00:07:34.937Z,21.90
2022-08-26T00:12:40.579Z,21.90
2022-08-26T00:17:43.245Z,21.80
2022-08-26T00:22:45.079Z,21.80
2022-08-26T00:27:47.747Z,21.80
2022-08-26T00:32:50.441Z,21.70
2022-08-26T00:37:52.278Z,21.70
2022-08-26T00:42:54.286Z,21.70
2022-08-26T00:48:01.069Z,21.70
2022-08-26T00:53:21.529Z,21.70
2022-08-26T00:58:29.304Z,21.60
2022-08-26T01:03:33.923Z,21.50
2022-08-26T01:08:36.011Z,21.50
2022-08-26T01:13:38.780Z,21.40
2022-08-26T01:18:43.321Z,21.50
2022-08-26T01:23:51.660Z,21.60
2022-08-26T01:29:03.010Z,21.60
2022-08-26T01:34:11.234Z,21.60
2022-08-26T01:39:13.341Z,21.50
2022-08-26T01:44:19.826Z,21.50
2022-08-26T01:49:24.352Z,21.40
2022-08-26T01:54:27.952Z,21.40
2022-08-26T01:59:30.705Z,21.40
2022-08-26T02:04:41.336Z,21.40
2022-08-26T02:09:44.286Z,21.30
2022-08-26T02:14:53.657Z,21.30
2022-08-26T02:19:55.982Z,21.30
2022-08-26T02:25:01.455Z,21.30
2022-08-26T02:30:17.095Z,21.20
2022-08-26T02:35:22.070Z,21.20
2022-08-26T02:40:30.664Z,21.20
2022-08-26T02:45:33.375Z,21.20
2022-08-26T02:50:35.825Z,21.10
2022-08-26T02:55:37.818Z,21.10
2022-08-26T03:00:52.520Z,21.20
2022-08-26T03:05:55.168Z,21.20
2022-08-26T03:10:56.979Z,21.20
2022-08-26T03:16:01.966Z,21.30
2022-08-26T03:21:10.751Z,21.40
2022-08-26T03:26:15.163Z,21.40
2022-08-26T03:31:18.108Z,21.50
2022-08-26T03:36:20.074Z,21.50
2022-08-26T03:41:22.096Z,21.40
2022-08-26T03:46:24.055Z,21.40
2022-08-26T03:51:29.232Z,21.40
2022-08-26T03:56:33.297Z,21.40
2022-08-26T04:01:35.818Z,21.40
2022-08-26T04:06:42.956Z,21.30
2022-08-26T04:11:50.405Z,21.40
2022-08-26T04:16:55.395Z,21.30
2022-08-26T04:21:57.294Z,21.30
2022-08-26T04:26:59.121Z,21.30
2022-08-26T04:32:03.000Z,21.30
2022-08-26T04:37:05.914Z,21.20
2022-08-26T04:42:07.859Z,21.20
2022-08-26T04:47:10.666Z,21.10
2022-08-26T04:52:13.208Z,21.20
2022-08-26T04:57:15.261Z,21.30
2022-08-26T05:02:17.380Z,21.30
2022-08-26T05:07:19.153Z,21.40
2022-08-26T05:12:21.089Z,21.40
2022-08-26T05:17:23.269Z,21.50
2022-08-26T05:22:25.047Z,21.50
2022-08-26T05:27:27.128Z,21.60
2022-08-26T05:32:29.007Z,21.70
2022-08-26T05:37:31.005Z,21.80
2022-08-26T05:42:33.454Z,22.00
2022-08-26T05:47:35.822Z,22.20
2022-08-26T05:52:37.777Z,22.20
2022-08-26T05:57:42.814Z,22.20
2022-08-26T06:02:44.799Z,22.20
2022-08-26T06:08:08.754Z,22.30
2022-08-26T06:13:12.642Z,22.50
2022-08-26T06:18:17.044Z,22.50
2022-08-26T06:23:38.049Z,22.70
2022-08-26T06:28:43.742Z,22.90
2022-08-26T06:33:47.513Z,23.10
2022-08-26T06:38:50.866Z,23.10
2022-08-26T06:43:52.917Z,23.20
2022-08-26T06:48:55.606Z,23.30
2022-08-26T06:54:00.140Z,23.40
2022-08-26T06:59:03.269Z,23.40
2022-08-26T07:04:07.943Z,23.60
2022-08-26T07:09:12.775Z,23.80
2022-08-26T07:14:16.774Z,24.00
2022-08-26T07:19:30.225Z,24.10
2022-08-26T07:24:35.568Z,24.20
2022-08-26T07:29:39.400Z,24.30
2022-08-26T07:34:42.004Z,24.50
2022-08-26T07:39:45.161Z,24.60
2022-08-26T07:44:47.496Z,24.80
2022-08-26T07:49:52.617Z,25.00
2022-08-26T07:54:58.030Z,25.20
2022-08-26T08:00:00.210Z,25.40
2022-08-26T08:05:02.397Z,25.50
2022-08-26T08:10:09.771Z,25.70
2022-08-26T08:15:14.579Z,25.90
2022-08-26T08:20:17.315Z,26.00
2022-08-26T08:25:20.161Z,26.20
2022-08-26T08:30:22.770Z,26.30
2022-08-26T08:35:26.408Z,26.40
2022-08-26T08:40:29.236Z,26.70
2022-08-26T08:45:39.498Z,26.70
2022-08-26T08:50:56.588Z,26.80
2022-08-26T08:56:04.424Z,26.90
2022-08-26T09:01:11.893Z,27.10
2022-08-26T09:06:18.789Z,27.20
2022-08-26T09:11:20.907Z,27.30
2022-08-26T09:16:51.625Z,27.50
2022-08-26T09:21:58.858Z,27.60
2022-08-26T09:27:00.679Z,27.70
2022-08-26T09:32:24.251Z,27.70
2022-08-26T09:37:36.860Z,27.80
2022-08-26T09:42:38.689Z,28.00
2022-08-26T09:47:48.071Z,28.10
2022-08-26T09:53:05.245Z,28.00
2022-08-26T09:58:31.320Z,28.30
2022-08-26T10:03:38.074Z,28.50
2022-08-26T10:08:44.176Z,28.50
2022-08-26T10:13:57.907Z,28.60
2022-08-26T10:19:08.679Z,28.60
2022-08-26T10:24:12.143Z,28.40
2022-08-26T10:29:19.902Z,28.60
2022-08-26T10:34:24.182Z,28.60
2022-08-26T10:39:39.375Z,28.70
2022-08-26T10:44:43.804Z,28.80
2022-08-26T10:49:49.173Z,29.00
2022-08-26T10:54:54.913Z,29.10
2022-08-26T11:00:29.894Z,29.30
2022-08-26T11:05:33.355Z,29.50
2022-08-26T11:10:59.029Z,29.70
2022-08-26T11:16:01.429Z,30.00
2022-08-26T11:21:03.320Z,29.80
2022-08-26T11:26:20.393Z,29.70
2022-08-26T11:31:38.497Z,29.50
2022-08-26T11:36:40.543Z,29.60
2022-08-26T11:41:49.371Z,29.60
2022-08-26T11:46:59.720Z,29.60
2022-08-26T11:52:18.664Z,29.40
2022-08-26T11:57:23.237Z,29.40
2022-08-26T12:02:26.791Z,29.40
2022-08-26T12:07:30.200Z,29.40
2022-08-26T12:12:36.057Z,28.20
2022-08-26T12:17:39.902Z,25.80
2022-08-26T12:22:43.788Z,24.50
2022-08-26T12:27:53.739Z,23.60
2022-08-26T12:33:22.874Z,23.00
2022-08-26T12:38:27.523Z,22.90
2022-08-26T12:43:43.071Z,22.70
2022-08-26T12:48:49.046Z,22.50
2022-08-26T12:53:51.593Z,22.20
2022-08-26T12:59:25.142Z,21.90
2022-08-26T13:04:43.905Z,21.70
2022-08-26T13:09:45.752Z,21.40
2022-08-26T13:14:47.553Z,21.20
2022-08-26T13:19:49.419Z,21.20
2022-08-26T13:24:56.652Z,20.50
2022-08-26T13:29:59.778Z,20.30
2022-08-26T13:35:05.583Z,20.30
2022-08-26T13:40:08.483Z,20.30
2022-08-26T13:45:11.143Z,20.20
2022-08-26T13:50:13.020Z,20.00
2022-08-26T13:55:14.904Z,20.00
2022-08-26T14:00:17.475Z,19.90
2022-08-26T14:05:19.522Z,20.00
2022-08-26T14:10:21.979Z,20.00
2022-08-26T14:15:24.120Z,20.00
2022-08-26T14:20:29.600Z,19.90
2022-08-26T14:25:33.597Z,19.90
2022-08-26T14:30:37.014Z,19.90
2022-08-26T14:35:40.620Z,20.10
2022-08-26T14:40:50.101Z,20.20
2022-08-26T14:45:52.549Z,20.10
2022-08-26T14:50:54.425Z,20.10
2022-08-26T14:55:56.360Z,20.10
2022-08-26T15:00:58.504Z,20.00
2022-08-26T15:06:06.365Z,20.00
2022-08-26T15:11:08.289Z,19.90
2022-08-26T15:16:10.635Z,19.50
2022-08-26T15:21:12.654Z,19.30
2022-08-26T15:26:15.744Z,19.50
2022-08-26T15:31:18.220Z,19.60
2022-08-26T15:36:20.188Z,19.50
2022-08-26T15:41:22.937Z,19.60
2022-08-26T15:46:24.942Z,19.70
2022-08-26T15:51:32.748Z,19.70
2022-08-26T15:56:37.060Z,19.80
2022-08-26T16:01:40.514Z,19.80
2022-08-26T16:06:43.484Z,19.90
2022-08-26T16:11:45.339Z,19.70
2022-08-26T16:16:47.361Z,19.60
2022-08-26T16:21:51.329Z,19.60
2022-08-26T16:26:54.501Z,19.70
2022-08-26T16:31:56.413Z,19.70
2022-08-26T16:36:58.413Z,19.70
2022-08-26T16:42:00.220Z,19.70
2022-08-26T16:47:02.034Z,19.50
2022-08-26T16:52:04.530Z,19.60
2022-08-26T16:57:08.303Z,19.80
2022-08-26T17:02:11.801Z,19.80
2022-08-26T17:07:13.596Z,19.80
2022-08-26T17:12:15.536Z,19.90
2022-08-26T17:17:17.443Z,19.90
2022-08-26T17:22:19.345Z,19.90
2022-08-26T17:27:21.155Z,20.00
2022-08-26T17:32:22.997Z,20.00
2022-08-26T17:37:24.941Z,20.00
2022-08-26T17:42:31.427Z,19.90
2022-08-26T17:47:34.208Z,20.00
2022-08-26T17:52:37.349Z,20.00
2022-08-26T17:57:40.871Z,20.00
2022-08-26T18:02:44.550Z,20.00
2022-08-26T18:07:46.996Z,19.90
2022-08-26T18:12:48.982Z,19.90
2022-08-26T18:17:50.822Z,19.80
2022-08-26T18:22:54.341Z,19.90
2022-08-26T18:27:56.165Z,19.80
2022-08-26T18:32:58.211Z,19.80
2022-08-26T18:38:01.319Z,19.80
2022-08-26T18:43:13.345Z,19.80
2022-08-26T18:48:15.171Z,19.80
2022-08-26T18:53:17.720Z,19.80
2022-08-26T18:58:19.593Z,19.80
2022-08-26T19:03:22.627Z,19.80
2022-08-26T19:08:24.533Z,19.70
2022-08-26T19:13:27.289Z,19.70
2022-08-26T19:18:29.146Z,19.70
2022-08-26T19:23:32.314Z,19.70
2022-08-26T19:28:34.674Z,19.70
2022-08-26T19:33:41.887Z,19.70
2022-08-26T19:38:44.871Z,19.80
2022-08-26T19:43:47.294Z,19.80
2022-08-26T19:48:54.045Z,19.80
2022-08-26T19:54:00.216Z,19.90
2022-08-26T19:59:01.990Z,19.90
2022-08-26T20:04:04.176Z,19.90
2022-08-26T20:09:05.982Z,19.80
2022-08-26T20:14:07.756Z,19.80
2022-08-26T20:19:29.250Z,19.80
2022-08-26T20:24:32.553Z,19.80
2022-08-26T20:29:37.061Z,19.80
2022-08-26T20:34:40.708Z,19.80
2022-08-26T20:39:43.174Z,19.80
2022-08-26T20:44:54.701Z,19.80
2022-08-26T20:49:57.025Z,19.80
2022-08-26T20:54:59.296Z,19.80
2022-08-26T21:00:01.205Z,19.80
2022-08-26T21:05:03.791Z,19.80
2022-08-26T21:10:06.355Z,19.70
2022-08-26T21:15:08.822Z,19.80
2022-08-26T21:20:10.673Z,19.80
2022-08-26T21:25:12.731Z,19.80
2022-08-26T21:30:16.122Z,19.80
2022-08-26T21:35:18.347Z,19.70
2022-08-26T21:40:20.270Z,19.70
2022-08-26T21:45:22.446Z,19.70
2022-08-26T21:50:24.345Z,19.70
2022-08-26T21:55:26.221Z,19.70
2022-08-26T22:00:28.288Z,19.60
2022-08-26T22:05:30.147Z,19.60
2022-08-26T22:10:31.945Z,19.60
2022-08-26T22:15:35.430Z,19.60
2022-08-26T22:20:37.259Z,19.60
2022-08-26T22:25:39.428Z,19.50
2022-08-26T22:30:43.140Z,19.50
2022-08-26T22:35:48.196Z,19.50
2022-08-26T22:40:56.901Z,19.40
2022-08-26T22:45:58.802Z,19.50
2022-08-26T22:51:00.886Z,19.40
2022-08-26T22:56:03.410Z,19.40
2022-08-26T23:01:07.294Z,19.40
2022-08-26T23:06:10.608Z,19.40
2022-08-26T23:11:13.725Z,19.40
2022-08-26T23:16:15.729Z,19.40
2022-08-26T23:21:17.640Z,19.40
2022-08-26T23:26:19.901Z,19.40
2022-08-26T23:31:21.748Z,19.40
2022-08-26T23:36:23.718Z,19.40
2022-08-26T23:41:25.728Z,19.30
2022-08-26T23:46:27.527Z,19.30
2022-08-26T23:51:48.221Z,19.30
2022-08-26T23:56:50.484Z,19.30
